Pioche, Nevada Weather observations

Data are for observation ending at time listed.
 Day   Time    Ave.   Ave.  Ave.  Vector   Max.   Stn.    Total    Solar   Ave.  
  of    of     Air    Rel.  Wind   Wind    Wind   Baro.  Precip.   Rad.    Soil  
Year   Day     Temp.  Hum.  Speed  Dir.    Gust   Pres.                    Temp. 
2014   (PST)    F      %     mph   deg.    mph     mb.     in.     W/m2     F   
------------------------------------------------------------------------------
 208   15:50   84.0    26    8.2   291     14.1   824.1    0.00     454    83.9
 208   16:00   83.0    28   11.9   298     20.5   824.0    0.00     398    84.0
 208   16:10   82.8    28   12.9   301     20.8   823.8    0.00     463    84.0
 208   16:20   81.9    28   13.7   304     20.8   823.8    0.00     195    84.1
 208   16:30   81.8    28   10.1   308     18.9   824.0    0.00      95    84.1
 208   16:40   82.0    27    5.3   313     13.5   824.2    0.00      41    84.2
 208   16:50   78.8    32    2.8    72      9.5   824.5    0.00      18    84.2
 208   17:00   76.1    42    9.8    86     16.7   824.9    0.00      10    84.3
 208   17:10   71.1    60   14.3   110     21.4   825.4    0.01       5    84.3
 208   17:20   69.2    62   13.8   128     20.1   825.8    0.06       4    84.3
 208   17:30   67.4    70    9.7   144     15.8   825.7    0.01       4    84.3
 208   17:40   67.3    66    6.7   184     11.9   825.7    0.00       4    84.3
 208   17:50   65.4    74    6.9   207     11.0   825.8    0.01       3    84.3
 208   18:00   65.3    74    5.4   224     10.5   825.7    0.00       2    84.3
 208   18:10   66.7    65    6.7   255     11.5   825.7    0.00       2    84.2
 208   18:20   67.7    60    8.0   265     16.6   825.9    0.00       0    84.2
 208   18:30   67.5    61    7.5   261     15.9   826.2    0.00       0    84.1
 208   18:40   66.7    65    4.9   251     13.2   826.7    0.01       0    84.1
 208   18:50   66.2    66    5.2   257     10.2   826.8    0.00       0    83.9
 208   19:00   65.9    67    6.4   267     10.7   826.6    0.00       0    83.8
 208   19:10   65.5    69    6.3   263     12.6   826.5    0.00       0    83.7
 208   19:20   65.8    66    7.6   272     12.4   826.5    0.01       0    83.6
 208   19:30   66.3    65    5.2   270     10.3   826.9    0.00       0    83.4
 208   19:40   66.3    66    6.6   277     12.2   827.2    0.00       0    83.2
 208   19:50   65.4    69    8.9   272     14.8   826.6    0.00       0    83.1
 208   20:00   66.1    64   10.2   270     18.0   826.2    0.00       0    82.9
 208   20:10   68.2    55   12.6   276     20.2   825.8    0.00       0    82.7
 208   20:20   67.5    59    9.8   273     17.5   825.6    0.00       0    82.6
 208   20:30   67.0    59    6.8   269     11.2   825.6    0.00       0    82.5
 208   20:40   66.1    68    3.6   311      8.7   826.0    0.00       0    82.3
 208   20:50   64.0    76    1.2    48      4.2   826.3    0.00       0    82.1
 208   21:00   63.8    75    1.3   203      3.9   826.4    0.00       0    81.9
 208   21:10   64.0    74    1.6   257      4.9   826.5    0.00       0    81.8
 208   21:20   64.2    74    2.5   265      5.7   826.5    0.00       0    81.6
 208   21:30   64.2    74    2.4   255      4.4   826.4    0.00       0    81.5
 208   21:40   64.3    73    3.2   270      6.1   826.4    0.00       0    81.3
 208   21:50   64.4    72    2.5   234      5.6   826.3    0.00       0    81.2
 208   22:00   64.4    72    1.6   241      3.3   826.3    0.00       0    81.1
 208   22:10   65.0    68    1.7   238      3.7   826.2    0.00       0    80.9
 208   22:20   65.2    67    2.7   216      5.0   826.1    0.00       0    80.8
 208   22:30   65.4    66    1.7   232      3.7   826.1    0.00       0    80.7
 208   22:40   65.9    64    1.9   223      4.0   826.0    0.00       0    80.6
 208   22:50   66.0    64    1.3   238      3.9   825.9    0.00       0    80.5
 208   23:00   66.5    60    2.3   246      4.7   825.8    0.00       0    80.3
 208   23:10   68.5    52    0.5   271      1.8   825.7    0.00       0    80.2
 208   23:20   68.0    57    0.2   346      1.0   825.7    0.00       0    80.1
 208   23:30   65.4    72    1.5   107      2.8   825.7    0.00       0    80.0
 208   23:40   64.7    74    0.5   132      2.5   825.8    0.00       0    80.0
 208   23:50   64.8    73    1.9   286      4.0   825.9    0.00       0    79.9
 209    0:00   64.6    72    2.3   250      5.5   826.0    0.00       0    79.8
 209    0:10   65.0    69    2.9   264      5.0   826.0    0.00       0    79.7
 209    0:20   64.6    68    2.6   273      6.1   826.0    0.00       0    79.6
 209    0:30   66.0    63    4.2   276      6.8   826.0    0.00       0    79.6
 209    0:40   65.0    71    1.9   244      4.4   826.2    0.00       0    79.5
 209    0:50   65.4    65    3.2   142      6.9   826.4    0.00       0    79.4
 209    1:00   66.8    61    6.0   108      8.8   826.6    0.00       0    79.3
 209    1:10   66.6    62    3.7   126      7.2   826.6    0.00       0    79.2
 209    1:20   66.6    62    5.7   140      9.6   826.6    0.00       0    79.2
 209    1:30   65.7    65    6.6   167     11.7   826.6    0.00       0    79.1
 209    1:40   65.7    65    5.1   132      8.6   826.4    0.00       0    79.0
 209    1:50   65.6    65    6.0   137      8.8   826.4    0.00       0    78.9
 209    2:00   65.7    64    4.1   138      6.8   826.4    0.00       0    78.9
 209    2:10   65.8    64    0.9   330      4.7   826.3    0.00       0    78.8
 209    2:20   64.1    74    1.9   294      3.6   826.3    0.00       0    78.7
 209    2:30   63.4    76    0.1   267      1.2   826.2    0.00       0    78.7
 209    2:40   63.6    75    0.2   260      1.0   826.3    0.00       0    78.6
 209    2:50   63.6    76    0.6   351      1.4   826.3    0.00       0    78.5
 209    3:00   63.2    76    0.1   346      0.9   826.2    0.00       0    78.5
 209    3:10   63.1    76    1.1   273      2.8   826.1    0.00       0    78.4
 209    3:20   63.5    74    0.1   258      0.7   826.2    0.00       0    78.3
 209    3:30   63.9    72    0.2   260      1.4   826.3    0.00       0    78.2
 209    3:40   63.8    73    0.7   151      3.5   826.3    0.00       0    78.2
 209    3:50   64.6    70    2.1   150      3.7   826.2    0.00       0    78.1
 209    4:00   64.5    70    0.1   175      1.0   826.1    0.00       0    78.0
 209    4:10   65.0    65    0.6    80      2.3   826.0    0.00       0    78.0
 209    4:20   65.5    66    2.3    90      3.2   826.1    0.00       0    77.9
 209    4:30   65.6    63    1.9    91      4.2   826.1    0.00       0    77.9
 209    4:40   65.9    62    3.2    90      5.1   826.1    0.00       2    77.8
 209    4:50   65.4    65    3.2    82      5.0   826.2    0.00       7    77.7
 209    5:00   63.5    76    2.9    75      4.5   826.2    0.00      12    77.7
 209    5:10   63.7    71    3.7    83      5.2   826.2    0.00      12    77.6
 209    5:20   64.0    69    4.0   101      5.3   826.2    0.00      14    77.6
 209    5:30   64.3    68    3.4   109      4.6   826.3    0.00      22    77.5
 209    5:40   64.9    68    1.3    22      2.7   826.4    0.00      32    77.5
 209    5:50   64.6    71    0.7   310      2.6   826.5    0.00      41    77.4
 209    6:00   64.6    72    1.6   316      3.8   826.6    0.00      57    77.4
 209    6:10   63.9    78    1.7   309      3.9   826.8    0.00      70    77.3
 209    6:20   63.9    78    2.0   300      3.3   826.9    0.00      87    77.2
 209    6:30   64.2    76    1.1   308      2.4   827.0    0.00      82    77.2
 209    6:40   64.6    74    0.2    14      1.0   827.1    0.00      71    77.2
 209    6:50   64.4    76    0.3    52      1.5   827.2    0.00      68    77.1
 209    7:00   64.4    78    0.5    85      1.7   827.3    0.01      76    77.1
 209    7:10   64.4    79    1.7   105      3.2   827.4    0.00     102    77.0
 209    7:20   65.2    78    2.8   115      4.4   827.4    0.00     125    77.0
 209    7:30   65.5    74    4.6   142      7.2   827.5    0.00     142    76.9
 209    7:40   65.5    73    6.3   142     10.2   827.5    0.00     153    76.9
 209    7:50   65.5    70    8.1   141     12.0   827.6    0.00     168    76.8
 209    8:00   65.7    69    8.6   147     13.2   827.7    0.00     171    76.8
 209    8:10   65.6    70    7.7   156     15.9   827.8    0.00     171    76.8
 209    8:20   65.4    70   10.0   151     16.7   827.8    0.00     184    76.7
 209    8:30   65.0    71   11.9   146     18.5   827.9    0.00     174    76.7
 209    8:40   64.6    74   11.0   150     16.7   827.9    0.00     168    76.7
 209    8:50   64.1    77   13.0   147     18.9   827.9    0.00     155    76.6
 209    9:00   63.6    79   12.0   153     18.4   828.1    0.00     139    76.6
 209    9:10   63.1    81   11.5   155     17.6   828.1    0.00     138    76.6
 209    9:20   62.4    85   12.4   153     19.6   828.2    0.00     132    76.5
 209    9:30   61.8    86   10.1   156     18.0   828.3    0.00     124    76.5
 209    9:40   62.0    84    9.4   171     16.4   828.3    0.00     132    76.4
 209    9:50   62.7    80    7.0   177     12.1   828.3    0.01     146    76.3
 209   10:00   63.6    79    4.3   190     10.0   828.3    0.00     131    76.3
 209   10:10   63.3    84    2.6   317      7.7   828.3    0.01      82    76.2
 209   10:20   63.1    82    1.6   314      3.7   828.1    0.02      95    76.2
 209   10:30   63.0    85    3.1   327      5.7   828.0    0.00     146    76.1
 209   10:40   63.3    87    1.1   344      4.5   828.1    0.00     217    76.1
 209   10:50   64.0    84    1.1   307      2.6   828.1    0.00     340    76.0
 209   11:00   65.2    81    0.9   324      3.1   828.1    0.00     436    76.0
 209   11:10   66.4    77    1.0    75      3.4   828.2    0.00     989    76.0
 209   11:20   68.2    73    1.6    75      3.9   828.1    0.00    1016    75.9
 209   11:30   68.6    70    0.7    69      3.3   828.1    0.00     849    75.8
 209   11:40   69.9    64    0.1   358      1.2   828.0    0.00     978    75.8
 209   11:50   71.4    63    2.0   299      7.1   828.0    0.00     895    75.8
 209   12:00   71.3    62    2.6   294      5.1   828.0    0.00     692    75.8
 209   12:10   70.9    64    2.0   325      6.1   827.8    0.00     819    75.8
 209   12:20   72.8    61    2.9   317      7.8   827.7    0.00    1141    75.9
 209   12:30   73.8    58    1.6   301      5.8   827.5    0.00    1114    76.0
 209   12:40   73.3    58    2.4   319      8.3   827.3    0.00     435    76.1
 209   12:50   72.0    62    4.3   284      7.3   827.2    0.00     322    76.2
 209   13:00   71.5    64    5.4   290      9.6   827.1    0.00     395    76.3
 209   13:10   72.0    62    4.8   299      7.7   827.1    0.00     537    76.4
 209   13:20   73.5    60    3.7   308      7.7   826.9    0.00     863    76.5
 209   13:30   73.4    59    3.7   278      9.4   826.9    0.00     556    76.6
 209   13:40   73.5    58    4.4   312     10.4   826.7    0.00     380    76.7
 209   13:50   73.5    58    2.5   312      9.6   826.7    0.00     521    76.9
 209   14:00   73.8    56    5.1   316      9.1   826.5    0.00     436    76.9
 209   14:10   74.2    54    3.9   319      8.6   826.3    0.00     548    77.1
 209   14:20   75.5    52    2.9   320      8.4   826.2    0.00     448    77.1
 209   14:30   74.8    52    2.8   289      7.2   826.2    0.00     528    77.2
 209   14:40   76.8    48    0.7   150      2.5   826.1    0.00     472    77.3
 209   14:50   76.6    47    1.0   335      7.2   826.0    0.00     258    77.4
 209   15:00   77.9    44    3.0   318      8.8   825.8    0.00     773    77.5
 209   15:10   78.8    39    4.0   308      8.5   825.7    0.00     815    77.6
 209   15:20   78.9    37    3.5   300      9.6   825.7    0.00     792    77.7
 209   15:30   79.4    35    5.3   316      9.7   825.6    0.00     713    77.8
 209   15:40   80.0    34    3.1   282     10.5   825.5    0.00     654    77.9

Return to Pioche, Nevada graphs page.


Western Regional Climate Center,wrcc@dri.edu